createdAt,value
2019-01-11T00:00:05.544Z,22.8
2019-01-11T00:02:05.166Z,22.9
2019-01-11T00:04:07.521Z,22.8
2019-01-11T00:06:05.216Z,22.8
2019-01-11T00:08:04.864Z,22.9
2019-01-11T00:10:05.546Z,22.9
2019-01-11T00:12:07.761Z,22.9
2019-01-11T00:14:05.504Z,22.8
2019-01-11T00:16:05.286Z,22.8
2019-01-11T00:18:05.140Z,22.8
2019-01-11T00:20:04.819Z,22.8
2019-01-11T00:22:05.475Z,22.9
2019-01-11T00:24:10.231Z,22.8
2019-01-11T00:26:05.039Z,22.8
2019-01-11T00:28:04.781Z,22.8
2019-01-11T00:30:10.688Z,22.8
2019-01-11T00:32:05.368Z,22.8
2019-01-11T00:34:05.564Z,22.8
2019-01-11T00:36:05.212Z,22.9
2019-01-11T00:38:04.887Z,22.9
2019-01-11T00:40:07.603Z,22.8
2019-01-11T00:42:04.864Z,22.8
2019-01-11T00:44:05.584Z,22.9
2019-01-11T00:46:05.351Z,22.8
2019-01-11T00:48:05.100Z,22.8
2019-01-11T00:50:04.769Z,22.8
2019-01-11T00:52:07.477Z,22.8
2019-01-11T00:54:05.238Z,22.8
2019-01-11T00:56:05.098Z,22.8
2019-01-11T00:58:04.833Z,22.8
2019-01-11T01:00:05.070Z,22.8
2019-01-11T01:02:04.736Z,22.8
2019-01-11T01:04:05.395Z,22.8
2019-01-11T01:06:05.590Z,22.8
2019-01-11T01:08:05.400Z,22.7
2019-01-11T01:10:05.128Z,22.8
2019-01-11T01:12:04.864Z,22.8
2019-01-11T01:14:05.119Z,22.8
2019-01-11T01:16:04.832Z,22.8
2019-01-11T01:18:04.826Z,22.8
2019-01-11T01:20:05.576Z,22.7
2019-01-11T01:22:05.281Z,22.7
2019-01-11T01:24:04.984Z,22.7
2019-01-11T01:26:04.713Z,22.7
2019-01-11T01:28:05.371Z,22.8
2019-01-11T01:30:05.531Z,22.7
2019-01-11T01:32:12.812Z,22.7
2019-01-11T01:34:08.023Z,22.7
2019-01-11T01:36:04.687Z,22.7
2019-01-11T01:38:15.554Z,22.7
2019-01-11T01:40:05.250Z,22.7
2019-01-11T01:42:07.445Z,22.7
2019-01-11T01:44:04.706Z,22.7
2019-01-11T01:46:07.974Z,22.7
2019-01-11T01:48:04.634Z,22.7
2019-01-11T01:50:07.869Z,22.7
2019-01-11T01:52:05.164Z,22.7
2019-01-11T01:54:05.383Z,22.7
2019-01-11T01:56:07.640Z,22.7
2019-01-11T01:58:05.306Z,22.7
2019-01-11T02:00:04.990Z,22.7
2019-01-11T02:02:04.784Z,22.7
2019-01-11T02:04:05.526Z,22.6
2019-01-11T02:06:05.210Z,22.6
2019-01-11T02:08:04.891Z,22.7
2019-01-11T02:10:04.662Z,22.7
2019-01-11T02:12:10.400Z,22.7
2019-01-11T02:14:05.130Z,22.7
2019-01-11T02:16:04.846Z,22.7
2019-01-11T02:18:04.725Z,22.7
2019-01-11T02:20:05.457Z,22.7
2019-01-11T02:22:05.193Z,22.7
2019-01-11T02:24:05.010Z,22.7
2019-01-11T02:26:07.230Z,22.7
2019-01-11T02:28:04.959Z,22.7
2019-01-11T02:30:04.697Z,22.7
2019-01-11T02:32:05.477Z,22.7
2019-01-11T02:34:05.196Z,22.7
2019-01-11T02:36:04.851Z,22.7
2019-01-11T02:38:05.571Z,22.7
2019-01-11T02:40:05.225Z,22.7
2019-01-11T02:42:07.429Z,22.6
2019-01-11T02:44:07.664Z,22.7
2019-01-11T02:46:07.854Z,22.6
2019-01-11T02:48:05.587Z,22.7
2019-01-11T02:50:05.314Z,22.6
2019-01-11T02:52:05.046Z,22.7
2019-01-11T02:54:07.271Z,22.7
2019-01-11T02:56:10.570Z,22.6
2019-01-11T02:58:05.285Z,22.6
2019-01-11T03:00:04.996Z,22.7
2019-01-11T03:02:07.789Z,22.6
2019-01-11T03:04:05.587Z,22.6
2019-01-11T03:06:07.873Z,22.6
2019-01-11T03:08:05.085Z,22.6
2019-01-11T03:10:04.823Z,22.6
2019-01-11T03:12:08.057Z,22.6
2019-01-11T03:14:04.751Z,22.6
2019-01-11T03:16:05.541Z,22.6
2019-01-11T03:18:05.470Z,22.6
2019-01-11T03:20:05.218Z,22.6
2019-01-11T03:22:12.510Z,22.6
2019-01-11T03:24:05.161Z,22.6
2019-01-11T03:26:04.925Z,22.6
2019-01-11T03:28:07.252Z,22.6
2019-01-11T03:30:04.967Z,22.6
2019-01-11T03:32:04.676Z,22.6
2019-01-11T03:34:05.221Z,22.6
2019-01-11T03:36:05.441Z,22.6
2019-01-11T03:38:05.155Z,22.6
2019-01-11T03:40:07.368Z,22.6
2019-01-11T03:42:05.231Z,22.6
2019-01-11T03:44:05.013Z,22.6
2019-01-11T03:46:04.852Z,22.6
2019-01-11T03:48:07.721Z,22.6
2019-01-11T03:50:05.093Z,22.6
2019-01-11T03:52:05.486Z,22.6
2019-01-11T03:54:05.138Z,22.6
2019-01-11T03:56:07.314Z,22.5
2019-01-11T03:58:05.021Z,22.5
2019-01-11T04:00:05.291Z,22.5
2019-01-11T04:02:04.963Z,22.6
2019-01-11T04:04:04.666Z,22.6
2019-01-11T04:06:05.404Z,22.6
2019-01-11T04:08:05.095Z,22.6
2019-01-11T04:10:07.864Z,22.5
2019-01-11T04:12:10.740Z,22.5
2019-01-11T04:14:05.425Z,22.5
2019-01-11T04:16:10.140Z,22.5
2019-01-11T04:18:05.066Z,22.5
2019-01-11T04:20:04.935Z,22.5
2019-01-11T04:22:05.623Z,22.5
2019-01-11T04:24:05.372Z,22.5
2019-01-11T04:26:05.200Z,22.5
2019-01-11T04:28:04.977Z,22.5
2019-01-11T04:30:04.793Z,22.5
2019-01-11T04:32:05.516Z,22.5
2019-01-11T04:34:05.224Z,22.5
2019-01-11T04:36:07.511Z,22.5
2019-01-11T04:38:07.706Z,22.5
2019-01-11T04:40:05.426Z,22.5
2019-01-11T04:42:05.120Z,22.5
2019-01-11T04:44:04.839Z,22.5
2019-01-11T04:46:05.536Z,22.5
2019-01-11T04:48:04.826Z,22.5
2019-01-11T04:50:09.262Z,22.5
2019-01-11T04:52:05.301Z,22.5
2019-01-11T04:54:05.542Z,22.5
2019-01-11T04:56:05.219Z,22.5
2019-01-11T04:58:04.927Z,22.5
2019-01-11T05:00:05.085Z,22.6
2019-01-11T05:02:04.796Z,22.6
2019-01-11T05:04:05.541Z,22.6
2019-01-11T05:06:07.803Z,22.6
2019-01-11T05:08:12.640Z,22.7
2019-01-11T05:10:10.493Z,22.7
2019-01-11T05:12:07.742Z,22.7
2019-01-11T05:14:05.455Z,22.7
2019-01-11T05:16:07.684Z,22.7
2019-01-11T05:18:05.526Z,22.7
2019-01-11T05:20:05.232Z,22.7
2019-01-11T05:22:04.849Z,22.7
2019-01-11T05:24:05.529Z,22.7
2019-01-11T05:26:04.881Z,22.7
2019-01-11T05:28:08.766Z,22.7
2019-01-11T05:30:11.007Z,22.7
2019-01-11T05:32:05.358Z,22.7
2019-01-11T05:34:05.187Z,22.7
2019-01-11T05:36:05.387Z,22.7
2019-01-11T05:38:07.691Z,22.7
2019-01-11T05:40:05.362Z,22.7
2019-01-11T05:42:05.112Z,22.7
2019-01-11T05:44:07.379Z,22.7
2019-01-11T05:46:10.131Z,22.7
2019-01-11T05:48:04.921Z,22.7
2019-01-11T05:50:04.614Z,22.7
2019-01-11T05:52:07.908Z,22.6
2019-01-11T05:54:05.548Z,22.6
2019-01-11T05:56:05.448Z,22.6
2019-01-11T05:58:05.252Z,22.6
2019-01-11T06:00:04.968Z,22.6
2019-01-11T06:02:04.867Z,22.6
2019-01-11T06:04:05.579Z,22.7
2019-01-11T06:06:05.280Z,22.7
2019-01-11T06:08:05.493Z,22.7
2019-01-11T06:10:05.222Z,22.6
2019-01-11T06:12:05.062Z,22.7
2019-01-11T06:14:05.085Z,22.6
2019-01-11T06:16:05.308Z,22.7
2019-01-11T06:18:05.193Z,22.7
2019-01-11T06:20:04.879Z,22.7
2019-01-11T06:22:05.546Z,22.7
2019-01-11T06:24:04.847Z,22.7
2019-01-11T06:26:05.514Z,22.7
2019-01-11T06:28:07.717Z,22.7
2019-01-11T06:30:05.420Z,22.7
2019-01-11T06:32:05.170Z,22.7
2019-01-11T06:34:05.148Z,22.6
2019-01-11T06:36:05.031Z,22.7
2019-01-11T06:38:07.736Z,22.7
2019-01-11T06:40:05.396Z,22.7
2019-01-11T06:42:05.132Z,22.7
2019-01-11T06:44:09.876Z,22.7
2019-01-11T06:46:09.673Z,22.7
2019-01-11T06:48:09.975Z,22.7
2019-01-11T06:50:04.665Z,22.7
2019-01-11T06:52:07.906Z,22.7
2019-01-11T06:54:05.578Z,22.7
2019-01-11T06:56:05.238Z,22.7
2019-01-11T06:58:07.544Z,22.7
2019-01-11T07:00:05.589Z,22.7
2019-01-11T07:02:12.916Z,22.7
2019-01-11T07:04:04.662Z,22.7
2019-01-11T07:06:05.359Z,22.7
2019-01-11T07:08:07.550Z,22.7
2019-01-11T07:10:05.338Z,22.7
2019-01-11T07:12:05.114Z,22.6
2019-01-11T07:14:04.780Z,22.6
2019-01-11T07:16:05.058Z,22.7
2019-01-11T07:18:07.632Z,22.7
2019-01-11T07:20:05.581Z,22.7
2019-01-11T07:22:05.236Z,22.7
2019-01-11T07:24:05.460Z,22.7
2019-01-11T07:26:10.241Z,22.6
2019-01-11T07:28:05.402Z,22.7
2019-01-11T07:30:08.053Z,22.6
2019-01-11T07:32:07.248Z,22.6
2019-01-11T07:34:05.445Z,22.6
2019-01-11T07:36:05.130Z,22.7
2019-01-11T07:38:04.862Z,22.7
2019-01-11T07:40:07.615Z,22.6
2019-01-11T07:42:05.351Z,22.6
2019-01-11T07:44:15.115Z,22.6
2019-01-11T07:46:07.864Z,22.6
2019-01-11T07:48:05.548Z,22.6
2019-01-11T07:50:07.756Z,22.6
2019-01-11T07:52:05.523Z,22.6
2019-01-11T07:54:05.202Z,22.6
2019-01-11T07:56:04.919Z,22.5
2019-01-11T07:58:07.773Z,22.6
2019-01-11T08:00:05.593Z,22.6
2019-01-11T08:02:05.342Z,22.5
2019-01-11T08:04:05.062Z,22.5
2019-01-11T08:06:07.310Z,22.5
2019-01-11T08:08:05.010Z,22.5
2019-01-11T08:10:04.779Z,22.5
2019-01-11T08:12:05.543Z,22.5
2019-01-11T08:14:05.234Z,22.5
2019-01-11T08:16:04.803Z,22.5
2019-01-11T08:18:04.741Z,22.5
2019-01-11T08:20:05.441Z,22.5
2019-01-11T08:22:07.629Z,22.4
2019-01-11T08:24:04.865Z,22.4
2019-01-11T08:26:05.132Z,22.4
2019-01-11T08:28:05.323Z,22.4
2019-01-11T08:30:05.042Z,22.4
2019-01-11T08:32:04.745Z,22.4
2019-01-11T08:34:07.938Z,22.4
2019-01-11T08:36:04.687Z,22.4
2019-01-11T08:38:05.387Z,22.5
2019-01-11T08:40:05.046Z,22.5
2019-01-11T08:42:04.721Z,22.6
2019-01-11T08:44:04.969Z,22.7
2019-01-11T08:46:07.214Z,22.8
2019-01-11T08:48:07.378Z,22.9
2019-01-11T08:50:07.622Z,23
2019-01-11T08:52:04.830Z,23
2019-01-11T08:54:05.511Z,23
2019-01-11T08:56:08.373Z,23.1
2019-01-11T08:58:05.301Z,23.1
2019-01-11T09:00:04.962Z,23.1
2019-01-11T09:02:04.654Z,23.2
2019-01-11T09:04:10.428Z,23.2
2019-01-11T09:06:05.090Z,23.3
2019-01-11T09:08:04.783Z,23.2
2019-01-11T09:10:07.990Z,23.3
2019-01-11T09:12:05.470Z,23.3
2019-01-11T09:14:07.662Z,23.4
2019-01-11T09:16:07.839Z,23.4
2019-01-11T09:18:10.257Z,23.4
2019-01-11T09:20:10.027Z,23.3
2019-01-11T09:22:09.772Z,23.2
2019-01-11T09:24:05.495Z,23.3
2019-01-11T09:26:05.201Z,23.2
2019-01-11T09:28:04.924Z,23.2
2019-01-11T09:30:07.170Z,23.2
2019-01-11T09:32:04.882Z,23.2
2019-01-11T09:34:04.616Z,23.1
2019-01-11T09:36:05.281Z,23.2
2019-01-11T09:38:05.033Z,23.1
2019-01-11T09:40:04.774Z,23.1
2019-01-11T09:42:05.435Z,23.1
2019-01-11T09:44:07.658Z,23.1
2019-01-11T09:46:05.448Z,23.1
2019-01-11T09:48:05.104Z,23.2
2019-01-11T09:50:05.335Z,23.2
2019-01-11T09:52:04.990Z,23.2
2019-01-11T09:54:07.160Z,23.2
2019-01-11T09:56:04.785Z,23.2
2019-01-11T09:58:05.534Z,23.2
2019-01-11T10:00:04.770Z,23.2
2019-01-11T10:02:10.029Z,23.2
2019-01-11T10:04:04.675Z,23.2
2019-01-11T10:06:06.046Z,23.2
2019-01-11T10:08:04.802Z,23.2
2019-01-11T10:10:05.588Z,23.3
2019-01-11T10:12:12.838Z,23.3
2019-01-11T10:14:05.543Z,23.3
2019-01-11T10:16:05.228Z,23.3
2019-01-11T10:18:05.097Z,23.4
2019-01-11T10:20:04.800Z,23.4
2019-01-11T10:22:05.041Z,23.5
2019-01-11T10:24:04.726Z,23.5
2019-01-11T10:26:07.513Z,23.6
2019-01-11T10:28:07.364Z,23.6
2019-01-11T10:30:10.139Z,23.6
2019-01-11T10:32:07.428Z,23.7
2019-01-11T10:34:05.073Z,23.7
2019-01-11T10:36:04.999Z,23.7
2019-01-11T10:38:05.285Z,23.7
2019-01-11T10:40:04.968Z,23.7
2019-01-11T10:42:04.720Z,23.7
2019-01-11T10:44:05.491Z,23.8
2019-01-11T10:46:05.186Z,23.8
2019-01-11T10:48:04.904Z,23.8
2019-01-11T10:50:05.658Z,23.8
2019-01-11T10:52:10.371Z,23.8
2019-01-11T10:54:08.069Z,23.8
2019-01-11T10:56:07.294Z,23.8
2019-01-11T10:58:07.521Z,23.7
2019-01-11T11:00:05.202Z,23.7
2019-01-11T11:02:04.913Z,23.6
2019-01-11T11:04:05.558Z,23.6
2019-01-11T11:06:05.245Z,23.5
2019-01-11T11:08:04.976Z,23.5
2019-01-11T11:10:04.750Z,23.5
2019-01-11T11:12:06.241Z,23.4
2019-01-11T11:14:04.938Z,23.5
2019-01-11T11:16:04.633Z,23.5
2019-01-11T11:18:05.569Z,23.5
2019-01-11T11:20:05.281Z,23.5
2019-01-11T11:22:10.025Z,23.5
2019-01-11T11:24:07.221Z,23.5
2019-01-11T11:26:04.879Z,23.5
2019-01-11T11:28:10.638Z,23.6
2019-01-11T11:30:05.303Z,23.5
2019-01-11T11:32:10.250Z,23.6
2019-01-11T11:34:05.447Z,23.6
2019-01-11T11:36:07.237Z,23.5
2019-01-11T11:38:07.423Z,23.6
2019-01-11T11:40:05.088Z,23.6
2019-01-11T11:42:04.785Z,23.5
2019-01-11T11:44:05.457Z,23.5
2019-01-11T11:46:07.704Z,23.5
2019-01-11T11:48:10.505Z,23.5
2019-01-11T11:50:05.146Z,23.5
2019-01-11T11:52:09.935Z,23.5
2019-01-11T11:54:07.688Z,23.6
2019-01-11T11:56:05.384Z,23.5
2019-01-11T11:58:05.142Z,23.6
2019-01-11T12:00:04.841Z,23.6
2019-01-11T12:02:05.515Z,23.5
2019-01-11T12:04:07.766Z,23.4
2019-01-11T12:06:05.491Z,23.4
2019-01-11T12:08:07.227Z,23.4
2019-01-11T12:10:05.461Z,23.4
2019-01-11T12:12:10.307Z,23.3
2019-01-11T12:14:05.004Z,23.2
2019-01-11T12:16:04.969Z,23.2
2019-01-11T12:18:07.351Z,23.2
2019-01-11T12:20:05.040Z,23.2
2019-01-11T12:22:04.709Z,23.2
2019-01-11T12:24:05.392Z,23.2
2019-01-11T12:26:05.585Z,23.1
2019-01-11T12:28:05.256Z,23.1
2019-01-11T12:30:12.524Z,23
2019-01-11T12:32:05.237Z,23
2019-01-11T12:34:05.489Z,23
2019-01-11T12:36:05.218Z,23
2019-01-11T12:38:04.949Z,23
2019-01-11T12:40:04.691Z,23
2019-01-11T12:42:05.400Z,23
2019-01-11T12:44:07.707Z,23
2019-01-11T12:46:05.433Z,23
2019-01-11T12:48:05.104Z,23
2019-01-11T12:50:04.833Z,22.9
2019-01-11T12:52:05.070Z,23
2019-01-11T12:54:05.418Z,23
2019-01-11T12:56:10.202Z,23
2019-01-11T12:58:04.896Z,23
2019-01-11T13:00:05.572Z,23.1
2019-01-11T13:02:05.319Z,23.1
2019-01-11T13:04:04.953Z,23.1
2019-01-11T13:06:10.663Z,23
2019-01-11T13:08:05.355Z,23
2019-01-11T13:10:04.992Z,23
2019-01-11T13:12:04.686Z,23
2019-01-11T13:14:07.952Z,23.1
2019-01-11T13:16:07.225Z,23.1
2019-01-11T13:18:05.162Z,23.1
2019-01-11T13:20:04.833Z,23.1
2019-01-11T13:22:05.612Z,23.2
2019-01-11T13:24:05.307Z,23.2
2019-01-11T13:26:10.625Z,23.2
2019-01-11T13:28:04.854Z,23.2
2019-01-11T13:30:05.486Z,23.1
2019-01-11T13:32:05.180Z,23.1
2019-01-11T13:34:04.910Z,23.1
2019-01-11T13:36:05.591Z,23.1
2019-01-11T13:38:05.279Z,23.1
2019-01-11T13:40:04.954Z,23.1
2019-01-11T13:42:04.653Z,23.1
2019-01-11T13:44:05.491Z,23.1
2019-01-11T13:46:05.311Z,23.1
2019-01-11T13:48:12.683Z,23.1
2019-01-11T13:50:07.917Z,23.1
2019-01-11T13:52:07.240Z,23.1
2019-01-11T13:54:10.246Z,23.1
2019-01-11T13:56:10.041Z,23.1
2019-01-11T13:58:07.840Z,23.1
2019-01-11T14:00:05.513Z,23.1
2019-01-11T14:02:10.591Z,23.1
2019-01-11T14:04:04.750Z,23.1
2019-01-11T14:06:05.425Z,23.1
2019-01-11T14:08:05.109Z,23.1
2019-01-11T14:10:04.996Z,23.1
2019-01-11T14:12:04.876Z,23.1
2019-01-11T14:14:05.567Z,23.1
2019-01-11T14:16:05.246Z,23.2
2019-01-11T14:18:07.678Z,23.1
2019-01-11T14:20:05.429Z,23.2
2019-01-11T14:22:05.148Z,23.2
2019-01-11T14:24:04.840Z,23.2
2019-01-11T14:26:05.500Z,23.2
2019-01-11T14:28:05.173Z,23.2
2019-01-11T14:30:04.809Z,23.2
2019-01-11T14:32:05.528Z,23.2
2019-01-11T14:34:05.238Z,23.1
2019-01-11T14:36:05.041Z,23.1
2019-01-11T14:38:04.704Z,23.1
2019-01-11T14:40:18.056Z,23.1
2019-01-11T14:42:09.867Z,23.1
2019-01-11T14:44:08.084Z,23
2019-01-11T14:46:07.311Z,23
2019-01-11T14:48:05.072Z,23
2019-01-11T14:50:04.720Z,23
2019-01-11T14:52:04.940Z,23
2019-01-11T14:54:07.719Z,22.9
2019-01-11T14:56:07.246Z,23
2019-01-11T14:58:04.935Z,23
2019-01-11T15:00:04.599Z,23
2019-01-11T15:02:05.366Z,23
2019-01-11T15:04:07.593Z,23
2019-01-11T15:06:04.833Z,23.1
2019-01-11T15:08:04.622Z,23.1
2019-01-11T15:10:05.337Z,23.1
2019-01-11T15:12:05.010Z,23.1
2019-01-11T15:14:04.666Z,23.1
2019-01-11T15:16:04.883Z,23.1
2019-01-11T15:18:07.356Z,23.2
2019-01-11T15:20:07.605Z,23.2
2019-01-11T15:22:07.857Z,23.2
2019-01-11T15:24:13.118Z,23.2
2019-01-11T15:26:04.780Z,23.2
2019-01-11T15:28:05.468Z,23.2
2019-01-11T15:30:04.774Z,23.2
2019-01-11T15:32:05.475Z,23.2
2019-01-11T15:34:05.149Z,23.2
2019-01-11T15:36:05.343Z,23.2
2019-01-11T15:38:12.610Z,23.2
2019-01-11T15:40:05.317Z,23.2
2019-01-11T15:42:05.194Z,23.2
2019-01-11T15:44:04.973Z,23.2
2019-01-11T15:46:04.815Z,23.2
2019-01-11T15:48:05.565Z,23.2
2019-01-11T15:52:59.316Z,23.1
2019-01-11T15:54:05.492Z,23.2
2019-01-11T15:56:05.156Z,23.2
2019-01-11T15:58:04.879Z,23.1
2019-01-11T16:00:05.566Z,23.1
2019-01-11T16:02:05.249Z,23.1
2019-01-11T16:04:05.465Z,23.1
2019-01-11T16:06:07.775Z,23.1
2019-01-11T16:08:05.523Z,23.1
2019-01-11T16:10:05.150Z,23.1
2019-01-11T16:12:04.856Z,23.1
2019-01-11T16:14:05.675Z,23.1
2019-01-11T16:16:04.790Z,23.1
2019-01-11T16:18:04.689Z,23.1
2019-01-11T16:20:05.424Z,23
2019-01-11T16:22:06.448Z,23.1
2019-01-11T16:24:04.906Z,23.1
2019-01-11T16:26:05.561Z,23.1
2019-01-11T16:28:05.241Z,23.1
2019-01-11T16:30:05.030Z,23.1
2019-01-11T16:32:04.839Z,23.2
2019-01-11T16:34:04.715Z,23.2
2019-01-11T16:36:05.122Z,23.2
2019-01-11T16:38:05.255Z,23.3
2019-01-11T16:40:05.158Z,23.3
2019-01-11T16:42:05.466Z,23.2
2019-01-11T16:44:05.174Z,23.3
2019-01-11T16:46:04.953Z,23.2
2019-01-11T16:48:04.682Z,23.2
2019-01-11T16:50:05.377Z,23.3
2019-01-11T16:52:05.575Z,23.3
2019-01-11T16:54:05.275Z,23.3
2019-01-11T16:56:10.078Z,23.3
2019-01-11T16:58:04.776Z,23.3
2019-01-11T17:00:05.436Z,23.3
2019-01-11T17:02:05.102Z,23.3
2019-01-11T17:04:07.303Z,23.3
2019-01-11T17:06:05.050Z,23.3
2019-01-11T17:08:05.332Z,23.3
2019-01-11T17:10:07.562Z,23.3
2019-01-11T17:12:06.487Z,23.3
2019-01-11T17:14:05.202Z,23.3
2019-01-11T17:16:04.886Z,23.3
2019-01-11T17:18:05.264Z,23.2
2019-01-11T17:20:07.508Z,23.2
2019-01-11T17:22:12.298Z,23.1
2019-01-11T17:24:04.944Z,23.1
2019-01-11T17:26:04.670Z,23.1
2019-01-11T17:28:12.921Z,23.1
2019-01-11T17:30:05.618Z,23.1
2019-01-11T17:32:05.268Z,23.2
2019-01-11T17:34:04.926Z,23.1
2019-01-11T17:36:05.170Z,23.2
2019-01-11T17:38:04.853Z,23.2
2019-01-11T17:40:05.592Z,23.2
2019-01-11T17:42:07.857Z,23.2
2019-01-11T17:44:05.573Z,23.2
2019-01-11T17:46:05.014Z,23.2
2019-01-11T17:48:05.285Z,23.2
2019-01-11T17:50:04.966Z,23.2
2019-01-11T17:52:04.683Z,23.2
2019-01-11T17:54:07.943Z,23.1
2019-01-11T17:56:09.657Z,23.1
2019-01-11T17:58:05.347Z,23.1
2019-01-11T18:00:04.985Z,23.1
2019-01-11T18:02:05.203Z,23.1
2019-01-11T18:04:07.441Z,23.1
2019-01-11T18:06:07.683Z,23.1
2019-01-11T18:08:05.399Z,23.1
2019-01-11T18:10:05.013Z,23.1
2019-01-11T18:12:12.321Z,23.1
2019-01-11T18:14:05.274Z,23.1
2019-01-11T18:16:05.506Z,23.1
2019-01-11T18:18:05.419Z,23.1
2019-01-11T18:20:07.285Z,23.1
2019-01-11T18:22:05.033Z,23.1
2019-01-11T18:24:07.704Z,23.1
2019-01-11T18:26:05.126Z,23.1
2019-01-11T18:28:05.423Z,23.1
2019-01-11T18:30:05.103Z,23.1
2019-01-11T18:32:07.934Z,23.1
2019-01-11T18:34:04.702Z,23.1
2019-01-11T18:36:10.265Z,23.1
2019-01-11T18:38:05.004Z,23
2019-01-11T18:40:04.698Z,23
2019-01-11T18:42:05.369Z,23
2019-01-11T18:44:05.303Z,23
2019-01-11T18:46:10.457Z,23
2019-01-11T18:48:04.649Z,23
2019-01-11T18:50:05.354Z,23
2019-01-11T18:52:07.575Z,23
2019-01-11T18:54:05.314Z,23
2019-01-11T18:56:05.791Z,23
2019-01-11T18:58:08.112Z,23
2019-01-11T19:00:07.923Z,23
2019-01-11T19:02:05.614Z,23
2019-01-11T19:04:10.406Z,23
2019-01-11T19:06:05.099Z,23
2019-01-11T19:08:04.896Z,23.1
2019-01-11T19:10:04.788Z,23
2019-01-11T19:12:05.467Z,23
2019-01-11T19:14:05.228Z,23
2019-01-11T19:16:10.711Z,23
2019-01-11T19:18:04.732Z,23
2019-01-11T19:20:05.464Z,23
2019-01-11T19:22:05.253Z,23
2019-01-11T19:24:05.995Z,23
2019-01-11T19:26:04.707Z,23
2019-01-11T19:28:07.131Z,23.1
2019-01-11T19:30:04.795Z,23.1
2019-01-11T19:32:05.478Z,23.1
2019-01-11T19:34:05.351Z,23.1
2019-01-11T19:36:05.571Z,23.1
2019-01-11T19:38:07.353Z,23.1
2019-01-11T19:40:10.152Z,23.1
2019-01-11T19:42:09.893Z,23.1
2019-01-11T19:44:05.540Z,23.1
2019-01-11T19:46:04.791Z,23.2
2019-01-11T19:48:04.753Z,23.1
2019-01-11T19:50:05.460Z,23.2
2019-01-11T19:52:10.154Z,23.1
2019-01-11T19:54:04.876Z,23.1
2019-01-11T19:56:08.120Z,23.1
2019-01-11T19:58:05.049Z,23.1
2019-01-11T20:00:07.472Z,23.1
2019-01-11T20:02:05.434Z,23.1
2019-01-11T20:04:07.640Z,23.2
2019-01-11T20:06:09.920Z,23.1
2019-01-11T20:08:07.204Z,23.2
2019-01-11T20:10:04.711Z,23.1
2019-01-11T20:12:05.421Z,23.2
2019-01-11T20:14:07.715Z,23.1
2019-01-11T20:16:10.497Z,23.1
2019-01-11T20:18:05.454Z,23.1
2019-01-11T20:20:06.224Z,23.1
2019-01-11T20:22:05.196Z,23.1
2019-01-11T20:24:05.397Z,23.1
2019-01-11T20:26:07.631Z,23.1
2019-01-11T20:28:05.322Z,23.1
2019-01-11T20:30:05.531Z,23.1
2019-01-11T20:32:08.797Z,23.1
2019-01-11T20:34:05.558Z,23.1
2019-01-11T20:36:05.550Z,23.1
2019-01-11T20:38:05.457Z,23.1
2019-01-11T20:40:05.194Z,23.1
2019-01-11T20:42:04.894Z,23.1
2019-01-11T20:44:04.643Z,23.1
2019-01-11T20:46:05.436Z,23.1
2019-01-11T20:48:05.119Z,23.1
2019-01-11T20:50:04.827Z,23.1
2019-01-11T20:52:05.599Z,23.1
2019-01-11T20:54:05.306Z,23.1
2019-01-11T20:56:10.199Z,23.1
2019-01-11T20:58:07.349Z,23
2019-01-11T21:00:07.595Z,23
2019-01-11T21:02:05.492Z,23
2019-01-11T21:04:08.215Z,23.1
2019-01-11T21:06:04.875Z,23
2019-01-11T21:08:08.096Z,23.1
2019-01-11T21:10:04.788Z,23.1
2019-01-11T21:12:05.044Z,23.1
2019-01-11T21:14:14.882Z,23
2019-01-11T21:16:10.625Z,23.1
2019-01-11T21:18:05.541Z,23.1
2019-01-11T21:20:05.219Z,23
2019-01-11T21:22:07.665Z,23
2019-01-11T21:24:07.944Z,23.1
2019-01-11T21:26:05.139Z,23.1
2019-01-11T21:28:07.363Z,23.1
2019-01-11T21:30:05.018Z,23.1
2019-01-11T21:32:04.677Z,23.1
2019-01-11T21:34:05.339Z,23.1
2019-01-11T21:36:10.089Z,23.1
2019-01-11T21:38:04.757Z,23.1
2019-01-11T21:40:05.518Z,23.1
2019-01-11T21:42:06.084Z,23.1
2019-01-11T21:44:04.758Z,23.1
2019-01-11T21:46:05.218Z,23.1
2019-01-11T21:48:05.105Z,23.1
2019-01-11T21:50:04.840Z,23.1
2019-01-11T21:52:05.550Z,23.1
2019-01-11T21:54:10.378Z,23.2
2019-01-11T21:56:08.104Z,23.2
2019-01-11T21:58:17.418Z,23.2
2019-01-11T22:00:05.107Z,23.2
2019-01-11T22:02:04.819Z,23.2
2019-01-11T22:04:05.043Z,23.2
2019-01-11T22:06:05.864Z,23.2
2019-01-11T22:08:04.657Z,23.2
2019-01-11T22:10:08.115Z,23.2
2019-01-11T22:12:05.018Z,23.2
2019-01-11T22:14:05.618Z,23.2
2019-01-11T22:16:07.419Z,23.2
2019-01-11T22:18:07.840Z,23.2
2019-01-11T22:20:05.568Z,23.2
2019-01-11T22:22:05.247Z,23.2
2019-01-11T22:24:07.509Z,23.2
2019-01-11T22:26:07.811Z,23.2
2019-01-11T22:28:10.592Z,23.2
2019-01-11T22:30:05.497Z,23.1
2019-01-11T22:32:05.189Z,23.2
2019-01-11T22:34:04.961Z,23.2
2019-01-11T22:36:05.304Z,23.1
2019-01-11T22:38:05.023Z,23.2
2019-01-11T22:40:04.694Z,23.2
2019-01-11T22:42:05.421Z,23.2
2019-01-11T22:44:05.296Z,23.2
2019-01-11T22:46:05.061Z,23.2
2019-01-11T22:48:05.490Z,23.2
2019-01-11T22:50:05.186Z,23.2
2019-01-11T22:52:05.508Z,23.2
2019-01-11T22:54:10.148Z,23.2
2019-01-11T22:56:04.638Z,23.2
2019-01-11T22:58:04.801Z,23.2
2019-01-11T23:00:08.003Z,23.2
2019-01-11T23:02:04.714Z,23.2
2019-01-11T23:04:05.436Z,23.2
2019-01-11T23:06:08.996Z,23.2
2019-01-11T23:08:04.871Z,23.2
2019-01-11T23:10:05.573Z,23.2
2019-01-11T23:12:10.396Z,23.1
2019-01-11T23:14:05.503Z,23.1
2019-01-11T23:16:05.201Z,23.1
2019-01-11T23:18:05.220Z,23.2
2019-01-11T23:20:04.939Z,23.2
2019-01-11T23:22:12.742Z,23.3
2019-01-11T23:24:04.923Z,23.3
2019-01-11T23:26:04.844Z,23.3
2019-01-11T23:28:05.493Z,23.4
2019-01-11T23:30:10.290Z,23.3
2019-01-11T23:32:04.962Z,23.4
2019-01-11T23:34:09.727Z,23.3
2019-01-11T23:36:05.389Z,23.3
2019-01-11T23:38:07.361Z,23.3
2019-01-11T23:40:05.024Z,23.3
2019-01-11T23:42:04.798Z,23.3
2019-01-11T23:44:14.798Z,23.3
2019-01-11T23:46:05.529Z,23.3
2019-01-11T23:48:05.479Z,23.3
2019-01-11T23:50:05.284Z,23.3
2019-01-11T23:52:04.956Z,23.3
2019-01-11T23:54:07.447Z,23.3
2019-01-11T23:56:05.379Z,23.3
2019-01-11T23:58:07.599Z,23.3
